Time;durP1;ratioP1;P1;durP2;ratioP2;P2;SDS_P1;SDS_P2;PMS_P1;PMS_P2;Temp;Humidity;BMP_temperature;BMP_pressure;BME280_temperature;BME280_humidity;BME280_pressure;Samples;Min_cycle;Max_cycle;Signal;HPM_P1;HPM_P2
2023/06/07 00:00:45;;;;;;;12.95;5.22;;;16.20;74.10;;;;;;4994331;28;20027;-77
2023/06/07 00:03:11;;;;;;;13.57;6.03;;;16.20;74.40;;;;;;4995656;28;20110;-79
2023/06/07 00:05:38;;;;;;;12.23;5.40;;;16.10;74.50;;;;;;4995509;28;20491;-78
2023/06/07 00:08:06;;;;;;;10.23;5.53;;;16.10;74.70;;;;;;4995344;28;20486;-77
2023/06/07 00:10:33;;;;;;;12.32;6.43;;;16.10;75.00;;;;;;4995433;28;20065;-77
2023/06/07 00:12:59;;;;;;;12.65;6.03;;;16.00;75.30;;;;;;4994022;28;20023;-77
2023/06/07 00:15:25;;;;;;;11.60;5.35;;;15.90;74.90;;;;;;4994239;28;20035;-77
2023/06/07 00:17:51;;;;;;;12.23;5.80;;;15.90;74.80;;;;;;4995327;28;20030;-77
2023/06/07 00:20:16;;;;;;;14.65;6.15;;;15.90;75.00;;;;;;4995199;28;20031;-77
2023/06/07 00:22:43;;;;;;;13.93;6.05;;;15.80;75.00;;;;;;4993985;28;20026;-78
2023/06/07 00:25:09;;;;;;;10.82;5.38;;;15.80;75.00;;;;;;4993991;28;20127;-77
2023/06/07 00:27:35;;;;;;;11.52;5.90;;;15.80;75.30;;;;;;4994968;28;20054;-78
2023/06/07 00:30:03;;;;;;;13.57;6.00;;;15.80;75.90;;;;;;4994846;28;20038;-77
2023/06/07 00:32:29;;;;;;;12.63;5.57;;;15.70;76.30;;;;;;4994904;28;20081;-77
2023/06/07 00:34:54;;;;;;;11.07;5.88;;;15.60;76.10;;;;;;4995063;28;20058;-77
2023/06/07 00:37:20;;;;;;;14.45;6.13;;;15.50;76.40;;;;;;4994986;28;20029;-78
2023/06/07 00:39:46;;;;;;;19.15;5.82;;;15.50;76.50;;;;;;4995003;28;20054;-77
2023/06/07 00:42:11;;;;;;;12.40;6.00;;;15.40;76.50;;;;;;4994773;28;20069;-77
2023/06/07 00:44:37;;;;;;;13.25;6.45;;;15.40;76.70;;;;;;4995007;28;20414;-77
2023/06/07 00:47:03;;;;;;;15.98;6.00;;;15.40;76.90;;;;;;4993448;28;20518;-77
2023/06/07 00:49:30;;;;;;;16.90;5.75;;;15.30;77.20;;;;;;4994654;28;20033;-77
2023/06/07 00:51:57;;;;;;;12.63;5.43;;;15.30;76.90;;;;;;4994704;28;20401;-77
2023/06/07 00:54:22;;;;;;;12.48;5.75;;;15.20;77.20;;;;;;4994642;28;20076;-78
2023/06/07 00:56:49;;;;;;;12.23;5.85;;;15.20;77.10;;;;;;4993221;28;20125;-77
2023/06/07 00:59:19;;;;;;;14.10;6.32;;;15.20;77.30;;;;;;4993220;28;20033;-77
2023/06/07 01:01:51;;;;;;;14.60;6.60;;;15.20;77.30;;;;;;4994424;28;20018;-77
2023/06/07 01:04:19;;;;;;;10.38;5.15;;;15.10;77.80;;;;;;4994519;28;20041;-78
2023/06/07 01:06:44;;;;;;;13.68;5.22;;;15.10;77.60;;;;;;4994541;28;20050;-78
2023/06/07 01:09:13;;;;;;;9.70;5.50;;;15.10;77.80;;;;;;4993073;28;20083;-77
2023/06/07 01:11:42;;;;;;;8.95;4.78;;;15.10;78.10;;;;;;4994484;28;20096;-78
2023/06/07 01:14:10;;;;;;;12.75;5.38;;;15.00;77.90;;;;;;4994309;28;20049;-78
2023/06/07 01:16:38;;;;;;;15.20;5.75;;;15.00;78.00;;;;;;4994632;28;20106;-78
2023/06/07 01:19:04;;;;;;;13.02;5.78;;;15.00;78.20;;;;;;4994488;28;20031;-78
2023/06/07 01:21:33;;;;;;;14.55;5.85;;;15.00;78.30;;;;;;4994190;28;20387;-78
2023/06/07 01:23:59;;;;;;;12.38;5.40;;;15.00;78.60;;;;;;4992934;28;20031;-79
2023/06/07 01:26:28;;;;;;;12.07;5.32;;;15.00;79.00;;;;;;4994086;28;20434;-77
2023/06/07 01:28:55;;;;;;;12.55;5.38;;;14.90;78.90;;;;;;4993958;28;20115;-78
2023/06/07 01:31:25;;;;;;;14.10;5.78;;;15.00;79.10;;;;;;4994137;28;20023;-78
2023/06/07 01:33:52;;;;;;;12.32;5.82;;;14.90;79.10;;;;;;4993835;28;20038;-78
2023/06/07 01:36:18;;;;;;;11.23;5.03;;;14.90;79.20;;;;;;4993985;28;20420;-78
2023/06/07 01:38:45;;;;;;;12.25;5.25;;;14.90;79.40;;;;;;4994078;28;20034;-76
2023/06/07 01:41:12;;;;;;;13.90;5.68;;;14.90;80.20;;;;;;4993979;28;20022;-77
2023/06/07 01:43:39;;;;;;;12.15;5.50;;;14.90;79.60;;;;;;4993927;28;20030;-77
2023/06/07 01:46:05;;;;;;;16.48;5.47;;;14.90;79.40;;;;;;4992624;28;20368;-76
2023/06/07 01:48:31;;;;;;;11.20;5.55;;;14.80;79.70;;;;;;4993858;28;20494;-79
2023/06/07 01:50:56;;;;;;;11.05;5.20;;;14.80;79.70;;;;;;4992648;28;20058;-78
2023/06/07 01:53:22;;;;;;;13.60;5.63;;;14.80;79.60;;;;;;4993694;28;20037;-77
2023/06/07 01:56:03;;;;;;;11.40;5.93;;;14.70;79.50;;;;;;4994206;28;20081;-78
2023/06/07 01:58:56;;;;;;;14.98;5.20;;;14.70;79.90;;;;;;4993714;28;20027;-78
2023/06/07 02:01:36;;;;;;;13.40;5.85;;;14.70;80.00;;;;;;4993858;28;20403;-77
2023/06/07 02:04:07;;;;;;;14.75;5.15;;;14.60;80.10;;;;;;4993805;28;20468;-78
2023/06/07 02:06:36;;;;;;;11.90;5.07;;;14.60;80.00;;;;;;4993832;28;20026;-77
2023/06/07 02:09:08;;;;;;;12.63;4.53;;;14.60;80.20;;;;;;4993541;28;20027;-76
2023/06/07 02:11:36;;;;;;;16.38;5.38;;;14.60;79.90;;;;;;4993683;28;20014;-78
2023/06/07 02:14:02;;;;;;;15.20;5.22;;;14.50;80.50;;;;;;4993581;28;20029;-78
2023/06/07 02:16:35;;;;;;;10.68;5.28;;;14.50;80.40;;;;;;4992465;28;20034;-77
2023/06/07 02:19:06;;;;;;;11.50;5.37;;;14.50;80.20;;;;;;4995111;28;20061;-77
2023/06/07 02:21:36;;;;;;;13.02;5.65;;;14.50;80.30;;;;;;4996235;28;20033;-77
2023/06/07 02:24:02;;;;;;;11.20;4.78;;;14.50;80.40;;;;;;4997389;28;20503;-78
2023/06/07 02:26:29;;;;;;;17.67;5.60;;;14.50;80.70;;;;;;4997187;28;20467;-77
2023/06/07 02:28:55;;;;;;;13.57;5.53;;;14.50;81.00;;;;;;4997286;28;20092;-78
2023/06/07 02:31:20;;;;;;;12.40;5.70;;;14.50;80.70;;;;;;4996236;28;20470;-77
2023/06/07 02:33:48;;;;;;;11.25;4.97;;;14.50;80.90;;;;;;4997013;28;20077;-77
2023/06/07 02:36:13;;;;;;;14.70;5.60;;;14.40;80.90;;;;;;4995986;28;20487;-78
2023/06/07 02:38:39;;;;;;;13.15;6.03;;;14.40;81.30;;;;;;4995908;28;20031;-77
2023/06/07 02:41:05;;;;;;;12.57;5.13;;;14.40;81.30;;;;;;4997088;28;20043;-77
2023/06/07 02:43:30;;;;;;;13.68;4.90;;;14.40;81.20;;;;;;4997135;28;20034;-77
2023/06/07 02:45:56;;;;;;;13.25;5.82;;;14.30;81.30;;;;;;4997138;28;20018;-77
2023/06/07 02:48:22;;;;;;;11.50;5.25;;;14.30;81.20;;;;;;4996873;28;20034;-77
2023/06/07 02:50:48;;;;;;;13.73;4.90;;;14.30;81.40;;;;;;4979682;28;20026;-77
2023/06/07 02:53:13;;;;;;;11.60;5.20;;;14.30;81.50;;;;;;4996844;28;20027;-77
2023/06/07 02:55:39;;;;;;;12.32;5.40;;;14.30;81.50;;;;;;4996978;28;20037;-77
2023/06/07 02:58:05;;;;;;;11.90;5.07;;;14.30;81.70;;;;;;4996763;28;20053;-77
2023/06/07 03:00:32;;;;;;;13.50;4.97;;;14.20;81.60;;;;;;4979381;28;20030;-77
2023/06/07 03:02:57;;;;;;;12.02;5.57;;;14.10;81.60;;;;;;4996656;28;20038;-77
2023/06/07 03:05:26;;;;;;;14.10;5.80;;;14.10;82.10;;;;;;4996610;28;20030;-77
2023/06/07 03:07:56;;;;;;;15.75;4.82;;;14.00;82.10;;;;;;4995256;28;20030;-77
2023/06/07 03:10:22;;;;;;;12.25;5.25;;;14.10;82.10;;;;;;4995247;28;20049;-77
2023/06/07 03:12:48;;;;;;;8.82;5.25;;;14.10;82.40;;;;;;4996484;28;20027;-77
2023/06/07 03:15:13;;;;;;;11.93;5.70;;;14.00;82.20;;;;;;4996235;28;20022;-78
2023/06/07 03:17:41;;;;;;;10.85;5.28;;;14.00;82.70;;;;;;4978942;28;20030;-77
2023/06/07 03:20:08;;;;;;;12.52;5.10;;;14.00;82.80;;;;;;4989831;28;20142;-76
2023/06/07 03:22:36;;;;;;;10.82;4.90;;;13.90;82.80;;;;;;4988915;28;20035;-77
2023/06/07 03:25:02;;;;;;;10.68;5.40;;;13.90;82.90;;;;;;4987944;28;20546;-77
2023/06/07 03:27:29;;;;;;;15.20;5.00;;;13.90;83.00;;;;;;4987973;28;20080;-79
2023/06/07 03:29:55;;;;;;;15.88;5.65;;;13.90;83.20;;;;;;4994868;28;20039;-79
2023/06/07 03:32:20;;;;;;;13.00;4.78;;;13.90;83.40;;;;;;4994733;28;20033;-78
2023/06/07 03:34:46;;;;;;;9.50;4.80;;;13.90;83.90;;;;;;4978636;28;20072;-79
2023/06/07 03:37:11;;;;;;;14.38;5.20;;;13.90;84.30;;;;;;4994862;28;20034;-78
2023/06/07 03:39:37;;;;;;;13.98;6.03;;;13.90;84.50;;;;;;4994710;28;20559;-78
2023/06/07 03:42:03;;;;;;;14.38;5.82;;;13.80;84.60;;;;;;4994905;28;20026;-77
2023/06/07 03:44:29;;;;;;;11.55;5.18;;;13.80;85.50;;;;;;4996151;28;20463;-79
2023/06/07 03:46:54;;;;;;;10.45;4.95;;;13.80;85.00;;;;;;4991528;28;20435;-78
2023/06/07 03:49:20;;;;;;;14.73;5.95;;;13.80;85.30;;;;;;4987092;28;20420;-78
2023/06/07 03:51:46;;;;;;;14.98;5.07;;;13.70;85.00;;;;;;4995564;28;20488;-78
2023/06/07 03:54:13;;;;;;;16.45;5.30;;;13.70;85.20;;;;;;4995641;28;20080;-78
2023/06/07 03:56:39;;;;;;;13.05;5.15;;;13.70;85.00;;;;;;4995538;28;20360;-77
2023/06/07 03:59:06;;;;;;;9.43;4.32;;;13.70;85.30;;;;;;4994379;28;20089;-77
2023/06/07 04:01:32;;;;;;;12.73;4.80;;;13.70;85.00;;;;;;4994336;28;20376;-77
2023/06/07 04:03:57;;;;;;;12.98;5.03;;;13.70;84.80;;;;;;4994488;28;20050;-78
2023/06/07 04:06:27;;;;;;;13.07;5.80;;;13.70;85.30;;;;;;4994423;28;20434;-78
2023/06/07 04:08:56;;;;;;;11.73;4.70;;;13.70;85.60;;;;;;4995352;28;20026;-76
2023/06/07 04:11:22;;;;;;;12.43;5.07;;;13.70;85.50;;;;;;4995443;28;20422;-77
2023/06/07 04:13:48;;;;;;;10.60;4.78;;;13.70;85.50;;;;;;4994082;28;20117;-78
2023/06/07 04:16:14;;;;;;;15.45;5.35;;;13.60;85.50;;;;;;4995417;28;20105;-77
2023/06/07 04:18:39;;;;;;;14.38;4.78;;;13.60;85.40;;;;;;4995318;28;20479;-77
2023/06/07 04:21:05;;;;;;;11.82;4.65;;;13.60;85.60;;;;;;4993991;28;20499;-77
2023/06/07 04:23:32;;;;;;;13.35;4.78;;;13.60;85.50;;;;;;4987817;28;20104;-77
2023/06/07 04:25:58;;;;;;;13.15;4.85;;;13.60;85.70;;;;;;5028222;28;21060;-78
2023/06/07 04:28:24;;;;;;;12.23;4.70;;;13.60;85.90;;;;;;5027860;28;20057;-77
2023/06/07 04:30:56;;;;;;;14.10;5.70;;;13.60;86.20;;;;;;5013572;28;20098;-78
2023/06/07 04:33:23;;;;;;;13.20;4.53;;;13.60;86.00;;;;;;5014497;28;20049;-77
2023/06/07 04:35:50;;;;;;;11.68;5.50;;;13.50;86.20;;;;;;5014120;28;20104;-77
2023/06/07 04:38:20;;;;;;;12.57;5.05;;;13.60;86.10;;;;;;5013865;28;20091;-77
2023/06/07 04:40:48;;;;;;;11.45;5.20;;;13.60;86.20;;;;;;5014546;28;20018;-79
2023/06/07 04:43:18;;;;;;;11.90;5.03;;;13.60;87.00;;;;;;5014174;28;20125;-79
2023/06/07 04:45:54;;;;;;;13.25;5.85;;;13.60;86.20;;;;;;5013086;28;20022;-78
2023/06/07 04:48:25;;;;;;;11.82;4.38;;;13.60;86.00;;;;;;5014337;28;20398;-79
2023/06/07 04:50:51;;;;;;;13.02;4.25;;;13.60;86.70;;;;;;5014400;28;20026;-77
2023/06/07 04:53:19;;;;;;;13.80;4.78;;;13.60;86.80;;;;;;5014336;28;20097;-78
2023/06/07 04:55:50;;;;;;;16.30;5.07;;;13.60;86.70;;;;;;5029142;28;20033;-79
2023/06/07 04:58:16;;;;;;;12.13;5.00;;;13.60;87.00;;;;;;5014136;28;20021;-80
2023/06/07 05:00:43;;;;;;;14.75;5.05;;;13.60;87.10;;;;;;5014118;28;20509;-80
2023/06/07 05:03:13;;;;;;;11.88;4.60;;;13.60;87.40;;;;;;5029276;28;20026;-80
2023/06/07 05:05:40;;;;;;;13.10;5.03;;;13.60;87.40;;;;;;5013997;28;20036;-78
2023/06/07 05:08:06;;;;;;;10.77;4.88;;;13.60;87.40;;;;;;5029358;28;20488;-81
2023/06/07 05:10:32;;;;;;;13.20;4.90;;;13.70;87.50;;;;;;5013814;28;20117;-82
2023/06/07 05:12:58;;;;;;;11.65;4.75;;;13.70;87.90;;;;;;5014000;28;20028;-80
2023/06/07 05:15:23;;;;;;;15.05;5.13;;;13.70;87.90;;;;;;5013762;28;20482;-80
2023/06/07 05:17:50;;;;;;;11.20;4.60;;;13.80;87.90;;;;;;5013743;28;20117;-81
2023/06/07 05:20:16;;;;;;;19.80;4.93;;;13.80;87.70;;;;;;5014028;28;20053;-78
2023/06/07 05:22:43;;;;;;;11.82;4.97;;;13.90;87.90;;;;;;5013921;28;20029;-79
2023/06/07 05:25:11;;;;;;;14.95;5.07;;;13.90;87.90;;;;;;5013759;28;20026;-80
2023/06/07 05:27:40;;;;;;;10.30;4.57;;;13.90;87.80;;;;;;5028787;28;20539;-82
2023/06/07 05:30:07;;;;;;;13.65;4.68;;;14.00;88.10;;;;;;5013710;28;20034;-80
2023/06/07 05:32:33;;;;;;;14.68;5.30;;;14.10;88.10;;;;;;5013680;28;20025;-80
2023/06/07 05:34:59;;;;;;;9.02;4.28;;;14.10;88.00;;;;;;5013280;28;20050;-80
2023/06/07 05:37:25;;;;;;;16.27;4.32;;;14.20;87.70;;;;;;5013779;28;20026;-80
2023/06/07 05:39:52;;;;;;;14.75;5.25;;;14.30;87.60;;;;;;5015874;28;20035;-77
2023/06/07 05:42:17;;;;;;;11.75;4.45;;;14.30;87.20;;;;;;4987596;28;20025;-79
2023/06/07 05:44:47;;;;;;;15.98;4.93;;;14.40;87.00;;;;;;4998419;28;20030;-79
2023/06/07 05:47:13;;;;;;;12.73;4.65;;;14.40;86.80;;;;;;5000296;28;20030;-79
2023/06/07 05:49:39;;;;;;;12.10;4.63;;;14.50;86.60;;;;;;4994683;28;20027;-76
2023/06/07 05:52:05;;;;;;;13.98;4.38;;;14.50;86.40;;;;;;4971544;28;20034;-76
2023/06/07 05:54:31;;;;;;;12.77;4.47;;;14.50;86.10;;;;;;4986085;28;20037;-78
2023/06/07 05:56:56;;;;;;;15.18;4.57;;;14.60;86.20;;;;;;4981042;28;20471;-79
2023/06/07 05:59:22;;;;;;;13.32;5.13;;;14.60;86.20;;;;;;4993970;28;20038;-78
2023/06/07 06:01:48;;;;;;;13.23;4.00;;;14.60;86.30;;;;;;4991054;28;20125;-78
2023/06/07 06:04:16;;;;;;;15.30;4.60;;;14.70;86.30;;;;;;4993249;28;20035;-79
2023/06/07 06:06:41;;;;;;;10.23;3.85;;;14.80;86.40;;;;;;4978255;28;20122;-81
2023/06/07 06:09:07;;;;;;;12.05;4.20;;;14.90;86.50;;;;;;4993108;28;20209;-82
2023/06/07 06:11:33;;;;;;;16.13;5.07;;;14.90;86.10;;;;;;4982459;28;20039;-78
2023/06/07 06:13:58;;;;;;;10.57;3.63;;;15.00;85.80;;;;;;4995563;28;20029;-78
2023/06/07 06:16:24;;;;;;;12.50;4.70;;;15.10;85.70;;;;;;4977776;28;20026;-78
2023/06/07 06:18:50;;;;;;;10.48;4.07;;;15.10;85.50;;;;;;4997188;28;20407;-79
2023/06/07 06:21:15;;;;;;;9.98;4.00;;;15.10;85.50;;;;;;5006294;28;20062;-78
2023/06/07 06:23:41;;;;;;;12.35;5.00;;;15.20;85.10;;;;;;4990061;28;20045;-77
2023/06/07 06:26:07;;;;;;;10.00;4.00;;;15.20;84.70;;;;;;4990067;28;20046;-78
2023/06/07 06:28:32;;;;;;;12.93;4.13;;;15.30;84.40;;;;;;5005581;28;20026;-78
2023/06/07 06:31:00;;;;;;;15.50;5.07;;;15.30;84.20;;;;;;5016830;28;20026;-77
2023/06/07 06:33:25;;;;;;;14.30;4.53;;;15.40;84.00;;;;;;5008098;28;20027;-79
2023/06/07 06:35:53;;;;;;;17.60;5.28;;;15.50;83.80;;;;;;5012178;28;20077;-79
2023/06/07 06:38:19;;;;;;;14.60;4.53;;;15.50;83.50;;;;;;4997264;28;20022;-79
2023/06/07 06:40:45;;;;;;;15.57;4.90;;;15.50;83.40;;;;;;4997311;28;20026;-80
2023/06/07 06:43:11;;;;;;;19.17;5.60;;;15.60;83.10;;;;;;4997177;28;20438;-80
2023/06/07 06:45:36;;;;;;;11.18;4.18;;;15.60;83.10;;;;;;4996935;28;20139;-78
2023/06/07 06:48:03;;;;;;;12.13;4.32;;;15.70;83.10;;;;;;4996913;28;20121;-74
2023/06/07 06:50:29;;;;;;;16.58;5.93;;;15.70;82.70;;;;;;4995565;28;20395;-73
2023/06/07 06:52:55;;;;;;;10.63;4.25;;;15.70;82.50;;;;;;4996794;28;20030;-73
2023/06/07 06:55:21;;;;;;;14.48;5.07;;;15.70;82.90;;;;;;4996678;28;20434;-73
2023/06/07 06:57:46;;;;;;;14.27;5.40;;;15.80;82.00;;;;;;4996613;28;20027;-73
2023/06/07 07:00:12;;;;;;;12.60;4.70;;;15.80;81.70;;;;;;4996615;28;20034;-77
2023/06/07 07:02:38;;;;;;;12.70;4.75;;;15.80;81.50;;;;;;5011364;28;20497;-79
2023/06/07 07:05:07;;;;;;;14.25;4.97;;;15.90;81.40;;;;;;4996946;28;20027;-79
2023/06/07 07:07:33;;;;;;;13.73;4.88;;;16.00;81.30;;;;;;4992561;28;20030;-78
2023/06/07 07:09:59;;;;;;;22.85;7.00;;;16.00;81.20;;;;;;4993053;28;20506;-77
2023/06/07 07:12:25;;;;;;;21.80;6.13;;;16.00;80.80;;;;;;4995654;28;20549;-78
2023/06/07 07:14:51;;;;;;;19.30;6.03;;;16.00;81.00;;;;;;4988037;28;20082;-78
2023/06/07 07:17:17;;;;;;;20.42;6.70;;;16.10;81.00;;;;;;4995177;28;20046;-77
2023/06/07 07:19:43;;;;;;;15.45;5.38;;;16.10;80.90;;;;;;4996386;28;20076;-75
2023/06/07 07:22:09;;;;;;;24.73;6.35;;;16.20;80.70;;;;;;4996258;28;20036;-78
2023/06/07 07:24:35;;;;;;;14.70;5.25;;;16.20;80.70;;;;;;5026672;28;20474;-78
2023/06/07 07:27:01;;;;;;;13.10;5.10;;;16.30;80.60;;;;;;5015835;28;20034;-79
2023/06/07 07:29:26;;;;;;;19.92;5.43;;;16.30;80.40;;;;;;5030950;28;20088;-79
2023/06/07 07:31:52;;;;;;;15.95;5.25;;;16.30;80.20;;;;;;5016026;28;20036;-78
2023/06/07 07:34:18;;;;;;;16.25;5.03;;;16.50;80.10;;;;;;5018215;28;20050;-78
2023/06/07 07:36:44;;;;;;;15.43;5.05;;;16.50;80.00;;;;;;4995902;28;20471;-79
2023/06/07 07:39:11;;;;;;;12.38;5.35;;;16.50;79.80;;;;;;4996049;28;20097;-80
2023/06/07 07:41:40;;;;;;;11.25;4.63;;;16.60;79.40;;;;;;4996165;28;20054;-80
2023/06/07 07:44:05;;;;;;;16.55;5.43;;;16.70;79.20;;;;;;5021343;28;20022;-78
2023/06/07 07:46:31;;;;;;;12.68;4.60;;;16.70;78.90;;;;;;5015483;28;20108;-77
2023/06/07 07:48:56;;;;;;;12.50;4.60;;;16.80;78.70;;;;;;5030582;28;20034;-77
2023/06/07 07:51:22;;;;;;;9.00;3.38;;;16.90;78.60;;;;;;5030650;28;20033;-78
2023/06/07 07:53:48;;;;;;;8.88;3.80;;;17.10;78.50;;;;;;5030656;28;20544;-78
2023/06/07 07:56:13;;;;;;;11.15;4.57;;;17.20;78.40;;;;;;5015183;28;20040;-78
2023/06/07 07:58:39;;;;;;;12.25;4.15;;;17.40;78.00;;;;;;5008012;28;20030;-78
2023/06/07 08:01:08;;;;;;;9.88;3.58;;;17.60;77.40;;;;;;4997817;28;20029;-78
2023/06/07 08:03:34;;;;;;;12.57;4.43;;;17.70;77.00;;;;;;5012928;28;20033;-78
2023/06/07 08:06:01;;;;;;;7.82;3.38;;;17.80;77.30;;;;;;5015181;28;20026;-78
2023/06/07 08:08:26;;;;;;;10.25;4.43;;;17.90;76.70;;;;;;5014744;28;20032;-77
2023/06/07 08:10:52;;;;;;;10.10;4.25;;;18.00;76.60;;;;;;5030301;28;20117;-76
2023/06/07 08:13:18;;;;;;;6.72;3.35;;;18.00;76.30;;;;;;5007178;28;20030;-76
2023/06/07 08:15:45;;;;;;;9.70;3.60;;;18.10;76.10;;;;;;4994111;28;20027;-78
2023/06/07 08:18:11;;;;;;;6.60;3.20;;;18.20;75.80;;;;;;5001220;28;20054;-78
2023/06/07 08:20:37;;;;;;;9.05;3.15;;;18.20;75.50;;;;;;4999171;28;20130;-78
2023/06/07 08:23:03;;;;;;;9.88;3.30;;;18.30;75.50;;;;;;4998434;28;20080;-78
2023/06/07 08:25:29;;;;;;;11.27;3.58;;;18.30;75.30;;;;;;4995943;28;20109;-78
2023/06/07 08:27:54;;;;;;;8.50;3.10;;;18.40;75.00;;;;;;5015109;28;20026;-79
2023/06/07 08:30:20;;;;;;;9.68;3.88;;;18.50;75.00;;;;;;4994747;28;20449;-78
2023/06/07 08:32:46;;;;;;;10.27;3.92;;;18.50;74.80;;;;;;4995818;28;20109;-78
2023/06/07 08:35:12;;;;;;;9.68;3.58;;;18.60;74.60;;;;;;4995420;28;20089;-79
2023/06/07 08:37:38;;;;;;;9.30;3.90;;;18.60;74.50;;;;;;4996229;28;20022;-78
2023/06/07 08:40:08;;;;;;;8.63;3.17;;;18.70;74.40;;;;;;4995912;28;20483;-78
2023/06/07 08:42:34;;;;;;;10.20;3.78;;;18.80;74.20;;;;;;4996695;28;20101;-77
2023/06/07 08:45:00;;;;;;;8.30;3.45;;;18.80;73.80;;;;;;5010954;28;20019;-78
2023/06/07 08:47:28;;;;;;;10.13;3.15;;;18.90;73.60;;;;;;5012278;28;20041;-78
2023/06/07 08:49:55;;;;;;;8.25;3.33;;;19.00;73.30;;;;;;4996807;28;20030;-78
2023/06/07 08:52:23;;;;;;;10.93;3.75;;;19.10;73.30;;;;;;5010455;28;20023;-78
2023/06/07 08:54:49;;;;;;;8.90;3.50;;;19.20;73.10;;;;;;4994925;28;20022;-77
2023/06/07 08:57:17;;;;;;;10.15;3.50;;;19.20;72.90;;;;;;4994737;28;20026;-77
2023/06/07 08:59:46;;;;;;;8.75;3.03;;;19.30;72.60;;;;;;4994969;28;20034;-78
2023/06/07 09:02:13;;;;;;;8.50;3.10;;;19.40;72.40;;;;;;5010676;28;20614;-77
2023/06/07 09:04:43;;;;;;;9.43;2.90;;;19.40;72.00;;;;;;4994605;28;20426;-77
2023/06/07 09:07:09;;;;;;;8.05;2.83;;;19.50;71.80;;;;;;4994675;28;20471;-77
2023/06/07 09:09:36;;;;;;;9.25;3.05;;;19.60;71.90;;;;;;4994667;28;20026;-77
2023/06/07 09:12:01;;;;;;;10.50;3.08;;;19.60;71.80;;;;;;4994976;28;20023;-78
2023/06/07 09:14:29;;;;;;;6.88;2.70;;;19.70;71.80;;;;;;4995534;28;20357;-79
2023/06/07 09:16:56;;;;;;;11.00;3.38;;;19.70;71.60;;;;;;4994674;28;20121;-79
2023/06/07 09:19:39;;;;;;;7.30;2.55;;;19.80;71.30;;;;;;4994640;28;20380;-79
2023/06/07 09:22:09;;;;;;;8.70;3.20;;;19.80;71.10;;;;;;4993175;28;20030;-77
2023/06/07 09:24:36;;;;;;;8.70;2.80;;;19.90;71.10;;;;;;5009211;28;20069;-79
2023/06/07 09:27:03;;;;;;;9.30;3.35;;;19.90;70.90;;;;;;5009802;28;20077;-78
2023/06/07 09:29:37;;;;;;;6.07;2.72;;;20.00;70.80;;;;;;4993290;28;20038;-78
2023/06/07 09:32:18;;;;;;;;;;;20.10;70.70;;;;;;5009713;28;20391;-78
2023/06/07 09:34:44;;;;;;;10.18;3.38;;;20.10;70.50;;;;;;4992799;28;20355;-78
2023/06/07 09:37:09;;;;;;;7.60;2.63;;;20.20;70.50;;;;;;4994148;28;20034;-78
2023/06/07 09:39:37;;;;;;;7.95;3.40;;;20.30;70.30;;;;;;5010363;28;20125;-78
2023/06/07 09:42:16;;;;;;;7.88;2.85;;;20.30;70.00;;;;;;4993998;28;20047;-78
2023/06/07 09:44:42;;;;;;;8.57;3.13;;;20.50;69.80;;;;;;4994110;28;20403;-78
2023/06/07 09:47:20;;;;;;;7.13;2.42;;;20.50;69.60;;;;;;5008987;28;20030;-78
2023/06/07 09:49:46;;;;;;;8.93;3.10;;;20.60;69.20;;;;;;4993791;28;20026;-78
2023/06/07 09:52:16;;;;;;;9.32;3.88;;;20.70;69.10;;;;;;4993958;28;20054;-78
2023/06/07 09:54:45;;;;;;;6.88;3.33;;;20.70;69.00;;;;;;5008823;28;20034;-78
2023/06/07 09:57:27;;;;;;;10.05;3.75;;;20.80;68.80;;;;;;4993866;28;20057;-78
2023/06/07 10:00:10;;;;;;;8.95;3.45;;;20.80;68.70;;;;;;4993812;28;20109;-77
2023/06/07 10:02:36;;;;;;;10.00;3.50;;;20.90;68.60;;;;;;4996257;28;20056;-78
2023/06/07 10:05:02;;;;;;;9.48;3.55;;;20.90;68.70;;;;;;5000045;28;20078;-79
2023/06/07 10:07:35;;;;;;;9.15;3.95;;;20.90;69.00;;;;;;4995166;28;20026;-79
2023/06/07 10:10:02;;;;;;;10.40;4.60;;;20.90;69.40;;;;;;4995892;28;20105;-78
2023/06/07 10:12:29;;;;;;;8.80;4.05;;;21.00;69.60;;;;;;5011484;28;20026;-79
2023/06/07 10:14:56;;;;;;;14.65;4.13;;;21.00;69.40;;;;;;4995520;28;20014;-79
2023/06/07 10:17:28;;;;;;;6.93;4.00;;;21.00;69.50;;;;;;4998015;28;20049;-78
2023/06/07 10:19:59;;;;;;;7.43;4.13;;;21.00;69.50;;;;;;5002173;28;20523;-78
2023/06/07 10:22:38;;;;;;;7.85;3.42;;;21.00;69.70;;;;;;5003675;28;20041;-78
2023/06/07 10:25:04;;;;;;;7.40;3.00;;;21.00;69.90;;;;;;4997416;28;20080;-78
2023/06/07 10:27:38;;;;;;;9.38;3.60;;;21.10;70.10;;;;;;4996903;28;20034;-78
2023/06/07 10:30:11;;;;;;;7.97;3.47;;;21.10;69.80;;;;;;4994586;28;20040;-78
2023/06/07 10:32:38;;;;;;;9.10;3.58;;;21.20;69.90;;;;;;5009850;28;20022;-78
2023/06/07 10:35:08;;;;;;;11.00;4.00;;;21.30;69.80;;;;;;4994745;28;20043;-78
2023/06/07 10:37:36;;;;;;;8.77;4.05;;;21.40;69.40;;;;;;4992284;28;20022;-78
2023/06/07 10:40:09;;;;;;;6.50;3.08;;;21.50;69.00;;;;;;4995005;28;20554;-78
2023/06/07 10:42:35;;;;;;;9.13;3.55;;;21.70;68.80;;;;;;5011499;28;20493;-78
2023/06/07 10:45:00;;;;;;;8.77;3.30;;;21.80;68.20;;;;;;4997601;28;20027;-79
2023/06/07 10:47:29;;;;;;;8.68;3.60;;;22.00;67.60;;;;;;4998091;28;20368;-78
2023/06/07 10:49:54;;;;;;;7.47;3.42;;;22.10;67.00;;;;;;4997485;28;20034;-78
2023/06/07 10:52:21;;;;;;;8.10;3.60;;;22.20;66.40;;;;;;4996063;28;20022;-78
2023/06/07 10:54:47;;;;;;;6.38;3.15;;;22.40;66.20;;;;;;4997914;28;20479;-78
2023/06/07 10:57:13;;;;;;;4.53;2.63;;;22.50;65.90;;;;;;4995844;28;20022;-77
2023/06/07 10:59:39;;;;;;;7.53;2.47;;;22.60;65.40;;;;;;4997422;28;20077;-78
2023/06/07 11:02:22;;;;;;;6.75;2.78;;;22.80;64.60;;;;;;4996960;28;20101;-78
2023/06/07 11:04:48;;;;;;;5.63;2.50;;;23.00;63.90;;;;;;4997058;28;20059;-78
2023/06/07 11:07:28;;;;;;;6.13;2.50;;;23.20;63.90;;;;;;4996713;28;20041;-78
2023/06/07 11:10:17;;;;;;;5.78;2.42;;;23.30;63.00;;;;;;4997759;28;20391;-79
2023/06/07 11:12:45;;;;;;;4.32;1.90;;;23.40;62.40;;;;;;4989507;28;20064;-78
2023/06/07 11:15:17;;;;;;;7.20;2.38;;;23.50;62.10;;;;;;4996394;28;20101;-79
2023/06/07 11:17:56;;;;;;;8.45;2.35;;;23.60;61.60;;;;;;4996698;28;20033;-79
2023/06/07 11:20:37;;;;;;;7.72;2.38;;;23.70;61.20;;;;;;4996496;28;20427;-79
2023/06/07 11:23:28;;;;;;;6.25;2.20;;;23.60;60.70;;;;;;4995395;28;20026;-79
2023/06/07 11:25:55;;;;;;;7.25;2.63;;;23.80;60.60;;;;;;4996398;28;20495;-78
2023/06/07 11:28:26;;;;;;;6.88;2.17;;;23.80;60.70;;;;;;4996357;28;20113;-78
2023/06/07 11:30:52;;;;;;;5.88;2.13;;;23.80;60.50;;;;;;4996366;28;20027;-79
2023/06/07 11:33:21;;;;;;;7.88;2.85;;;23.80;61.10;;;;;;4996382;28;20030;-79
2023/06/07 11:35:48;;;;;;;5.78;2.08;;;23.90;60.50;;;;;;5011121;28;20464;-78
2023/06/07 11:38:14;;;;;;;7.85;2.10;;;23.90;60.30;;;;;;4996157;28;20033;-78
2023/06/07 11:40:39;;;;;;;5.75;2.17;;;24.00;60.20;;;;;;4996112;28;20034;-78
2023/06/07 11:43:12;;;;;;;5.93;2.00;;;24.10;60.00;;;;;;4996001;28;20034;-78
2023/06/07 11:45:44;;;;;;;5.68;1.90;;;24.20;59.80;;;;;;5011197;28;20113;-78
2023/06/07 11:48:10;;;;;;;6.70;2.03;;;24.30;59.60;;;;;;4995813;28;20027;-78
2023/06/07 11:50:37;;;;;;;3.30;1.50;;;24.40;59.40;;;;;;4995656;28;20062;-78
2023/06/07 11:53:03;;;;;;;5.22;1.73;;;24.40;59.00;;;;;;5004398;28;20045;-79
2023/06/07 11:55:28;;;;;;;5.03;2.03;;;24.50;58.80;;;;;;4995024;28;20440;-78
2023/06/07 11:57:55;;;;;;;5.80;2.08;;;24.60;58.80;;;;;;4992916;28;20027;-79
2023/06/07 12:00:24;;;;;;;7.72;2.25;;;24.60;58.60;;;;;;4983725;28;20480;-78
2023/06/07 12:02:51;;;;;;;6.65;2.20;;;24.70;58.40;;;;;;4976366;28;20138;-79
2023/06/07 12:05:17;;;;;;;7.03;1.85;;;24.70;58.30;;;;;;4976418;28;20057;-78
2023/06/07 12:07:52;;;;;;;6.63;2.38;;;24.80;58.20;;;;;;4976216;28;20031;-79
2023/06/07 12:10:23;;;;;;;6.40;1.95;;;24.80;58.10;;;;;;4976067;28;20034;-78
2023/06/07 12:13:13;;;;;;;6.57;2.42;;;24.90;58.10;;;;;;4976150;28;20019;-78
2023/06/07 12:15:47;;;;;;;6.85;2.38;;;24.90;58.00;;;;;;4974800;28;20134;-78
2023/06/07 12:18:18;;;;;;;9.07;2.05;;;25.00;57.90;;;;;;4975927;28;20113;-79
2023/06/07 12:20:46;;;;;;;8.63;2.45;;;25.00;57.60;;;;;;4974714;28;20031;-80
2023/06/07 12:23:13;;;;;;;6.03;2.58;;;25.00;57.50;;;;;;4987711;28;20030;-80
2023/06/07 12:25:40;;;;;;;7.50;3.05;;;25.10;57.60;;;;;;5007206;28;20034;-79
2023/06/07 12:28:06;;;;;;;7.32;2.83;;;25.10;57.70;;;;;;4998347;28;20026;-80
2023/06/07 12:30:40;;;;;;;7.20;2.72;;;25.20;57.70;;;;;;4985914;28;20046;-81
2023/06/07 12:33:11;;;;;;;7.63;3.08;;;25.20;57.60;;;;;;5002535;28;20030;-78
2023/06/07 12:35:39;;;;;;;9.05;3.80;;;25.20;57.50;;;;;;4985900;28;20050;-79
2023/06/07 12:38:05;;;;;;;9.32;3.33;;;25.40;57.50;;;;;;4974881;28;20479;-78
2023/06/07 12:40:31;;;;;;;7.28;3.00;;;25.40;57.50;;;;;;4985574;28;20109;-81
2023/06/07 12:42:57;;;;;;;9.38;3.42;;;25.40;57.50;;;;;;4993466;28;20122;-79